createdAt,value
2019-02-06T00:00:53.324Z,73.85
2019-02-06T00:01:58.605Z,73.81
2019-02-06T00:03:02.243Z,73.89
2019-02-06T00:04:06.080Z,73.82
2019-02-06T00:05:14.091Z,74.41
2019-02-06T00:06:15.633Z,74.28
2019-02-06T00:07:19.276Z,74.39
2019-02-06T00:08:23.018Z,73.99
2019-02-06T00:09:26.711Z,73.65
2019-02-06T00:10:30.405Z,73.62
2019-02-06T00:11:35.153Z,73.24
2019-02-06T00:12:39.129Z,72.98
2019-02-06T00:13:42.776Z,72.89
2019-02-06T00:14:46.576Z,73.00
2019-02-06T00:15:50.229Z,73.02
2019-02-06T00:16:53.869Z,73.17
2019-02-06T00:17:57.652Z,73.08
2019-02-06T00:19:01.694Z,73.57
2019-02-06T00:20:08.354Z,74.17
2019-02-06T00:21:12.049Z,74.51
2019-02-06T00:22:15.681Z,74.70
2019-02-06T00:23:19.316Z,74.81
2019-02-06T00:24:23.128Z,75.05
2019-02-06T00:25:26.833Z,74.98
2019-02-06T00:26:30.527Z,74.68
2019-02-06T00:27:34.151Z,74.27
2019-02-06T00:28:37.788Z,74.09
2019-02-06T00:29:41.452Z,73.95
2019-02-06T00:30:45.256Z,73.67
2019-02-06T00:31:48.942Z,73.43
2019-02-06T00:32:52.941Z,73.39
2019-02-06T00:33:56.946Z,73.52
2019-02-06T00:35:00.900Z,73.46
2019-02-06T00:36:04.633Z,73.58
2019-02-06T00:37:08.371Z,73.62
2019-02-06T00:38:12.033Z,73.47
2019-02-06T00:39:15.673Z,73.71
2019-02-06T00:40:19.313Z,73.91
2019-02-06T00:41:23.151Z,74.19
2019-02-06T00:42:26.809Z,74.35
2019-02-06T00:43:30.524Z,74.41
2019-02-06T00:44:34.162Z,74.44
2019-02-06T00:45:37.866Z,74.32
2019-02-06T00:47:00.627Z,74.36
2019-02-06T00:48:04.288Z,74.34
2019-02-06T00:49:08.002Z,73.95
2019-02-06T00:50:14.683Z,73.78
2019-02-06T00:51:18.313Z,73.89
2019-02-06T00:52:22.335Z,74.04
2019-02-06T00:53:25.971Z,74.02
2019-02-06T00:54:29.908Z,74.10
2019-02-06T00:55:33.623Z,74.28
2019-02-06T00:56:37.261Z,74.32
2019-02-06T00:57:41.586Z,74.43
2019-02-06T00:58:45.374Z,74.55
2019-02-06T00:59:49.007Z,74.78
2019-02-06T01:00:52.645Z,75.00
2019-02-06T01:01:56.268Z,75.01
2019-02-06T01:02:59.907Z,75.14
2019-02-06T01:04:03.587Z,74.90
2019-02-06T01:05:10.158Z,74.80
2019-02-06T01:06:13.976Z,74.67
2019-02-06T01:07:18.203Z,74.20
2019-02-06T01:08:21.856Z,74.19
2019-02-06T01:09:25.536Z,73.80
2019-02-06T01:10:29.177Z,73.88
2019-02-06T01:11:32.812Z,74.34
2019-02-06T01:12:36.490Z,74.69
2019-02-06T01:13:40.115Z,74.68
2019-02-06T01:14:43.783Z,74.56
2019-02-06T01:15:47.489Z,74.51
2019-02-06T01:16:51.189Z,74.57
2019-02-06T01:17:54.830Z,74.90
2019-02-06T01:18:58.510Z,75.16
2019-02-06T01:20:02.529Z,75.36
2019-02-06T01:21:06.684Z,75.42
2019-02-06T01:22:10.531Z,75.27
2019-02-06T01:23:16.154Z,75.05
2019-02-06T01:24:19.542Z,74.87
2019-02-06T01:25:23.226Z,74.72
2019-02-06T01:26:26.847Z,74.14
2019-02-06T01:27:30.551Z,73.88
2019-02-06T01:28:34.191Z,74.02
2019-02-06T01:29:37.824Z,74.37
2019-02-06T01:30:43.104Z,74.29
2019-02-06T01:31:46.739Z,74.54
2019-02-06T01:32:50.664Z,74.50
2019-02-06T01:33:54.510Z,74.39
2019-02-06T01:34:58.520Z,74.49
2019-02-06T01:36:02.539Z,74.32
2019-02-06T01:37:06.178Z,74.25
2019-02-06T01:38:09.816Z,73.76
2019-02-06T01:39:13.523Z,73.70
2019-02-06T01:40:19.971Z,73.52
2019-02-06T01:41:23.645Z,73.41
2019-02-06T01:42:27.352Z,73.13
2019-02-06T01:43:30.986Z,72.82
2019-02-06T01:44:34.619Z,72.41
2019-02-06T01:45:38.331Z,72.02
2019-02-06T01:46:42.012Z,71.93
2019-02-06T01:47:45.658Z,72.12
2019-02-06T01:48:49.668Z,72.16
2019-02-06T01:49:53.316Z,72.21
2019-02-06T01:50:56.951Z,72.22
2019-02-06T01:52:00.620Z,72.29
2019-02-06T01:53:04.261Z,72.12
2019-02-06T01:54:07.903Z,72.11
2019-02-06T01:55:13.236Z,72.17
2019-02-06T01:56:16.872Z,72.23
2019-02-06T01:57:20.543Z,71.94
2019-02-06T01:58:24.175Z,72.06
2019-02-06T01:59:27.863Z,72.02
2019-02-06T02:00:31.577Z,72.02
2019-02-06T02:01:35.213Z,72.26
2019-02-06T02:02:39.263Z,72.27
2019-02-06T02:03:43.275Z,72.14
2019-02-06T02:04:47.007Z,72.15
2019-02-06T02:06:01.443Z,72.02
2019-02-06T02:06:56.060Z,72.21
2019-02-06T02:07:59.728Z,72.69
2019-02-06T02:09:04.535Z,73.00
2019-02-06T02:10:10.435Z,73.17
2019-02-06T02:11:14.146Z,73.42
2019-02-06T02:12:17.852Z,73.48
2019-02-06T02:13:21.520Z,73.81
2019-02-06T02:14:25.155Z,73.77
2019-02-06T02:15:28.794Z,73.93
2019-02-06T02:16:32.699Z,73.97
2019-02-06T02:17:36.719Z,74.61
2019-02-06T02:18:40.484Z,74.56
2019-02-06T02:19:44.111Z,74.30
2019-02-06T02:20:47.746Z,73.86
2019-02-06T02:21:51.451Z,73.60
2019-02-06T02:22:55.085Z,73.52
2019-02-06T02:23:58.753Z,73.83
2019-02-06T02:25:02.389Z,73.68
2019-02-06T02:26:06.132Z,73.48
2019-02-06T02:27:11.287Z,73.27
2019-02-06T02:28:15.285Z,72.25
2019-02-06T02:29:19.053Z,72.31
2019-02-06T02:30:33.206Z,72.43
2019-02-06T02:31:36.835Z,72.82
2019-02-06T02:32:40.455Z,72.61
2019-02-06T02:33:44.369Z,72.34
2019-02-06T02:34:48.039Z,72.09
2019-02-06T02:35:51.680Z,72.14
2019-02-06T02:36:55.313Z,72.28
2019-02-06T02:37:58.950Z,71.98
2019-02-06T02:39:03.061Z,71.55
2019-02-06T02:40:09.606Z,71.26
2019-02-06T02:41:13.230Z,70.82
2019-02-06T02:42:16.992Z,70.41
2019-02-06T02:43:20.688Z,70.23
2019-02-06T02:44:24.341Z,70.16
2019-02-06T02:45:28.073Z,70.12
2019-02-06T02:46:32.092Z,70.48
2019-02-06T02:47:35.727Z,70.64
2019-02-06T02:48:39.736Z,70.68
2019-02-06T02:49:43.371Z,70.70
2019-02-06T02:50:47.016Z,70.89
2019-02-06T02:51:50.646Z,71.26
2019-02-06T02:52:54.286Z,71.93
2019-02-06T02:53:57.928Z,72.46
2019-02-06T02:55:01.726Z,72.81
2019-02-06T02:56:05.362Z,72.92
2019-02-06T02:57:09.069Z,73.19
2019-02-06T02:58:12.776Z,73.13
2019-02-06T02:59:16.457Z,72.92
2019-02-06T03:00:28.591Z,72.57
2019-02-06T03:01:39.890Z,72.56
2019-02-06T03:02:45.185Z,72.72
2019-02-06T03:03:50.463Z,72.72
2019-02-06T03:06:33.558Z,73.48
2019-02-06T03:07:37.194Z,73.50
2019-02-06T03:08:40.899Z,73.51
2019-02-06T03:09:44.542Z,73.47
2019-02-06T03:10:48.212Z,73.53
2019-02-06T03:11:51.853Z,73.75
2019-02-06T03:12:55.851Z,73.84
2019-02-06T03:13:59.743Z,73.82
2019-02-06T03:15:04.649Z,73.54
2019-02-06T03:16:08.312Z,73.32
2019-02-06T03:17:11.891Z,73.09
2019-02-06T03:18:15.539Z,72.80
2019-02-06T03:19:19.809Z,72.48
2019-02-06T03:20:23.524Z,72.38
2019-02-06T03:21:27.222Z,72.34
2019-02-06T03:22:32.937Z,72.12
2019-02-06T03:23:36.151Z,72.27
2019-02-06T03:24:39.791Z,72.48
2019-02-06T03:25:43.494Z,72.28
2019-02-06T03:26:47.249Z,72.27
2019-02-06T03:27:50.854Z,72.38
2019-02-06T03:28:54.847Z,72.83
2019-02-06T03:29:58.584Z,72.88
2019-02-06T03:31:02.230Z,73.36
2019-02-06T03:32:05.994Z,73.09
2019-02-06T03:33:09.746Z,72.86
2019-02-06T03:34:13.458Z,72.45
2019-02-06T03:35:18.564Z,72.10
2019-02-06T03:36:22.266Z,71.53
2019-02-06T03:37:25.880Z,71.39
2019-02-06T03:38:29.579Z,71.26
2019-02-06T03:39:33.669Z,71.10
2019-02-06T03:40:37.307Z,70.84
2019-02-06T03:41:41.146Z,70.92
2019-02-06T03:42:45.357Z,71.43
2019-02-06T03:43:49.462Z,71.38
2019-02-06T03:44:53.106Z,70.85
2019-02-06T03:45:56.741Z,70.87
2019-02-06T03:47:00.377Z,70.76
2019-02-06T03:48:04.033Z,70.64
2019-02-06T03:49:08.069Z,70.72
2019-02-06T03:50:14.810Z,70.13
2019-02-06T03:51:18.447Z,69.93
2019-02-06T03:52:22.023Z,69.73
2019-02-06T03:53:26.118Z,69.54
2019-02-06T03:54:29.739Z,69.27
2019-02-06T03:55:33.717Z,67.79
2019-02-06T03:56:37.339Z,67.83
2019-02-06T03:57:41.431Z,67.59
2019-02-06T03:58:45.080Z,66.94
2019-02-06T03:59:48.728Z,66.78
2019-02-06T04:00:52.333Z,67.07
2019-02-06T04:01:55.967Z,67.30
2019-02-06T04:02:59.977Z,66.71
2019-02-06T04:04:04.142Z,66.80
2019-02-06T04:05:09.761Z,66.96
2019-02-06T04:06:13.389Z,67.21
2019-02-06T04:07:17.014Z,67.00
2019-02-06T04:08:20.761Z,66.78
2019-02-06T04:09:24.392Z,66.66
2019-02-06T04:10:28.133Z,66.07
2019-02-06T04:11:32.189Z,65.85
2019-02-06T04:12:35.823Z,66.05
2019-02-06T04:13:39.437Z,65.76
2019-02-06T04:14:43.084Z,65.91
2019-02-06T04:15:46.802Z,66.47
2019-02-06T04:16:50.868Z,66.43
2019-02-06T04:17:54.676Z,66.44
2019-02-06T04:18:58.399Z,66.69
2019-02-06T04:20:02.058Z,67.22
2019-02-06T04:21:05.989Z,66.98
2019-02-06T04:22:09.606Z,66.77
2019-02-06T04:23:14.870Z,66.57
2019-02-06T04:24:18.494Z,66.47
2019-02-06T04:25:22.202Z,66.33
2019-02-06T04:26:26.302Z,66.03
2019-02-06T04:27:30.100Z,65.88
2019-02-06T04:28:34.139Z,65.89
2019-02-06T04:29:37.775Z,65.46
2019-02-06T04:30:41.423Z,65.30
2019-02-06T04:31:45.050Z,65.60
2019-02-06T04:32:48.873Z,65.30
2019-02-06T04:33:52.491Z,65.36
2019-02-06T04:34:56.212Z,65.31
2019-02-06T04:35:59.939Z,67.56
2019-02-06T04:37:06.564Z,67.45
2019-02-06T04:38:09.034Z,66.54
2019-02-06T04:39:12.658Z,66.30
2019-02-06T04:40:20.961Z,68.05
2019-02-06T04:41:25.009Z,67.95
2019-02-06T04:42:28.766Z,66.37
2019-02-06T04:43:32.383Z,67.92
2019-02-06T04:44:36.013Z,66.38
2019-02-06T04:45:39.576Z,65.24
2019-02-06T04:46:43.296Z,65.75
2019-02-06T04:47:47.154Z,64.98
2019-02-06T04:48:50.823Z,66.45
2019-02-06T04:49:54.457Z,65.35
2019-02-06T04:50:58.156Z,65.39
2019-02-06T04:52:01.835Z,65.44
2019-02-06T04:53:06.458Z,65.23
2019-02-06T04:54:10.073Z,65.64
2019-02-06T04:55:16.215Z,65.06
2019-02-06T04:56:20.359Z,64.72
2019-02-06T04:57:24.052Z,64.88
2019-02-06T04:58:27.734Z,65.15
2019-02-06T04:59:31.357Z,64.80
2019-02-06T05:00:34.987Z,64.87
2019-02-06T05:01:38.610Z,64.80
2019-02-06T05:02:42.326Z,64.54
2019-02-06T05:03:45.933Z,64.74
2019-02-06T05:04:49.596Z,64.74
2019-02-06T05:05:53.225Z,64.66
2019-02-06T05:06:56.841Z,64.63
2019-02-06T05:08:00.511Z,64.56
2019-02-06T05:09:06.671Z,64.72
2019-02-06T05:10:13.180Z,64.46
2019-02-06T05:11:16.876Z,64.60
2019-02-06T05:12:20.510Z,64.87
2019-02-06T05:13:24.167Z,64.68
2019-02-06T05:14:27.805Z,64.60
2019-02-06T05:15:31.423Z,64.74
2019-02-06T05:16:35.042Z,65.17
2019-02-06T05:17:38.764Z,65.51
2019-02-06T05:18:42.407Z,65.21
2019-02-06T05:19:46.114Z,65.21
2019-02-06T05:20:50.123Z,65.26
2019-02-06T05:21:53.807Z,65.30
2019-02-06T05:22:57.515Z,65.29
2019-02-06T05:24:01.534Z,65.58
2019-02-06T05:25:06.230Z,65.83
2019-02-06T05:26:09.850Z,65.97
2019-02-06T05:27:13.486Z,65.76
2019-02-06T05:28:18.265Z,65.88
2019-02-06T05:29:22.132Z,65.85
2019-02-06T05:30:25.777Z,65.97
2019-02-06T05:31:29.393Z,65.86
2019-02-06T05:32:32.942Z,65.62
2019-02-06T05:33:36.683Z,65.55
2019-02-06T05:34:40.317Z,65.50
2019-02-06T05:35:44.008Z,65.64
2019-02-06T05:36:50.839Z,65.36
2019-02-06T05:37:53.012Z,65.54
2019-02-06T05:38:56.642Z,65.53
2019-02-06T05:40:00.392Z,65.88
2019-02-06T05:41:04.106Z,66.03
2019-02-06T05:42:07.866Z,66.12
2019-02-06T05:43:11.666Z,65.86
2019-02-06T05:44:15.569Z,66.13
2019-02-06T05:45:19.577Z,66.45
2019-02-06T05:46:23.184Z,66.55
2019-02-06T05:47:26.854Z,66.16
2019-02-06T05:48:30.466Z,66.23
2019-02-06T05:49:34.096Z,65.85
2019-02-06T05:50:40.833Z,65.83
2019-02-06T05:51:45.019Z,65.59
2019-02-06T05:52:48.871Z,65.82
2019-02-06T05:53:52.481Z,65.58
2019-02-06T05:54:56.120Z,65.94
2019-02-06T05:55:59.873Z,65.76
2019-02-06T05:57:03.525Z,65.56
2019-02-06T05:58:07.171Z,65.78
2019-02-06T05:59:10.854Z,65.80
2019-02-06T06:00:26.914Z,65.95
2019-02-06T06:01:30.639Z,66.27
2019-02-06T06:02:34.290Z,65.88
2019-02-06T06:03:38.001Z,66.05
2019-02-06T06:04:41.704Z,65.66
2019-02-06T06:05:45.319Z,65.82
2019-02-06T06:06:48.950Z,65.78
2019-02-06T06:07:52.893Z,65.86
2019-02-06T06:08:56.690Z,66.19
2019-02-06T06:10:00.457Z,65.71
2019-02-06T06:11:04.223Z,65.74
2019-02-06T06:12:07.812Z,65.70
2019-02-06T06:13:11.484Z,65.90
2019-02-06T06:14:15.099Z,65.72
2019-02-06T06:15:20.545Z,65.71
2019-02-06T06:16:24.156Z,65.82
2019-02-06T06:17:27.889Z,65.94
2019-02-06T06:18:31.508Z,66.16
2019-02-06T06:19:35.256Z,66.21
2019-02-06T06:20:39.184Z,66.10
2019-02-06T06:21:43.137Z,66.34
2019-02-06T06:22:47.063Z,66.36
2019-02-06T06:23:50.714Z,66.50
2019-02-06T06:24:54.406Z,66.69
2019-02-06T06:25:58.240Z,66.62
2019-02-06T06:27:01.857Z,66.17
2019-02-06T06:28:05.579Z,66.10
2019-02-06T06:29:09.206Z,66.13
2019-02-06T06:30:20.100Z,65.91
2019-02-06T06:31:23.723Z,66.02
2019-02-06T06:32:27.458Z,65.66
2019-02-06T06:33:31.161Z,65.69
2019-02-06T06:34:35.184Z,65.72
2019-02-06T06:35:39.151Z,65.94
2019-02-06T06:36:43.174Z,66.18
2019-02-06T06:37:57.837Z,66.02
2019-02-06T06:38:52.386Z,66.01
2019-02-06T06:39:56.017Z,65.76
2019-02-06T06:40:59.773Z,65.56
2019-02-06T06:42:03.456Z,65.57
2019-02-06T06:43:07.094Z,65.41
2019-02-06T06:44:10.793Z,65.87
2019-02-06T06:45:17.351Z,65.54
2019-02-06T06:46:21.013Z,65.32
2019-02-06T06:47:24.634Z,64.59
2019-02-06T06:48:28.271Z,64.57
2019-02-06T06:49:31.897Z,64.88
2019-02-06T06:50:35.691Z,64.82
2019-02-06T06:51:39.715Z,64.93
2019-02-06T06:52:43.318Z,64.70
2019-02-06T06:53:46.967Z,64.57
2019-02-06T06:54:50.647Z,64.65
2019-02-06T06:55:54.277Z,64.73
2019-02-06T06:56:57.917Z,64.42
2019-02-06T06:58:01.559Z,64.28
2019-02-06T06:59:05.314Z,63.89
2019-02-06T07:00:11.859Z,63.84
2019-02-06T07:01:15.487Z,64.16
2019-02-06T07:02:19.143Z,63.85
2019-02-06T07:03:22.772Z,63.74
2019-02-06T07:04:26.498Z,63.95
2019-02-06T07:05:30.508Z,63.79
2019-02-06T07:06:34.240Z,64.17
2019-02-06T07:07:38.037Z,63.80
2019-02-06T07:08:42.090Z,63.82
2019-02-06T07:09:45.658Z,64.08
2019-02-06T07:10:49.279Z,63.94
2019-02-06T07:11:52.913Z,64.00
2019-02-06T07:12:57.013Z,63.91
2019-02-06T07:14:00.927Z,64.01
2019-02-06T07:15:10.499Z,63.97
2019-02-06T07:16:14.157Z,63.48
2019-02-06T07:17:17.789Z,63.29
2019-02-06T07:18:21.504Z,63.29
2019-02-06T07:19:25.213Z,62.82
2019-02-06T07:20:29.176Z,63.22
2019-02-06T07:21:33.253Z,62.99
2019-02-06T07:22:37.016Z,63.09
2019-02-06T07:23:40.783Z,63.68
2019-02-06T07:24:44.396Z,63.42
2019-02-06T07:25:48.026Z,63.30
2019-02-06T07:26:51.791Z,63.67
2019-02-06T07:27:55.513Z,63.61
2019-02-06T07:28:59.369Z,63.27
2019-02-06T07:30:03.287Z,63.81
2019-02-06T07:31:06.981Z,63.67
2019-02-06T07:32:10.762Z,63.73
2019-02-06T07:33:14.483Z,63.56
2019-02-06T07:34:18.335Z,63.22
2019-02-06T07:35:22.449Z,63.60
2019-02-06T07:36:26.150Z,63.79
2019-02-06T07:37:29.785Z,63.54
2019-02-06T07:38:33.418Z,63.28
2019-02-06T07:39:37.091Z,63.00
2019-02-06T07:40:40.732Z,63.36
2019-02-06T07:41:44.370Z,62.86
2019-02-06T07:42:47.996Z,62.83
2019-02-06T07:43:52.591Z,63.05
2019-02-06T07:44:56.744Z,63.49
2019-02-06T07:46:00.395Z,63.50
2019-02-06T07:47:04.147Z,63.16
2019-02-06T07:48:11.314Z,63.44
2019-02-06T07:49:15.164Z,63.17
2019-02-06T07:50:24.235Z,63.30
2019-02-06T07:51:27.911Z,63.02
2019-02-06T07:52:31.655Z,62.70
2019-02-06T07:53:35.281Z,62.43
2019-02-06T07:54:39.317Z,62.23
2019-02-06T07:55:42.912Z,62.51
2019-02-06T07:56:46.544Z,61.96
2019-02-06T07:57:50.251Z,61.51
2019-02-06T07:58:53.956Z,61.32
2019-02-06T07:59:57.599Z,61.32
2019-02-06T08:01:01.354Z,61.45
2019-02-06T08:02:05.110Z,62.00
2019-02-06T08:03:08.815Z,62.01
2019-02-06T08:04:12.745Z,62.13
2019-02-06T08:05:20.519Z,62.07
2019-02-06T08:06:24.194Z,62.22
2019-02-06T08:07:27.832Z,61.76
2019-02-06T08:08:36.041Z,61.73
2019-02-06T08:09:36.820Z,62.32
2019-02-06T08:10:40.439Z,62.42
2019-02-06T08:11:44.171Z,62.22
2019-02-06T08:12:48.099Z,61.85
2019-02-06T08:13:51.807Z,61.61
2019-02-06T08:14:55.444Z,61.32
2019-02-06T08:15:59.157Z,61.44
2019-02-06T09:19:33.369Z,61.19
2019-02-06T09:20:36.996Z,61.42
2019-02-06T09:21:40.648Z,61.63
2019-02-06T09:22:44.364Z,61.02
2019-02-06T09:23:47.987Z,61.82
2019-02-06T09:24:51.722Z,61.09
2019-02-06T09:25:57.474Z,60.54
2019-02-06T09:27:01.096Z,60.29
2019-02-06T09:28:04.848Z,60.76
2019-02-06T09:29:08.405Z,60.65
2019-02-06T09:30:14.966Z,60.44
2019-02-06T09:31:18.591Z,60.53
2019-02-06T09:32:22.229Z,60.77
2019-02-06T09:33:26.054Z,60.15
2019-02-06T09:34:29.679Z,59.93
2019-02-06T09:35:33.428Z,60.59
2019-02-06T09:36:37.082Z,60.12
2019-02-06T09:37:40.806Z,60.67
2019-02-06T09:38:44.725Z,60.74
2019-02-06T09:39:48.355Z,59.88
2019-02-06T09:40:52.320Z,60.48
2019-02-06T09:41:55.957Z,60.51
2019-02-06T09:42:59.772Z,60.60
2019-02-06T09:44:03.316Z,60.68
2019-02-06T09:45:08.534Z,60.26
2019-02-06T09:46:12.207Z,60.57
2019-02-06T09:47:15.895Z,60.03
2019-02-06T09:48:19.522Z,59.80
2019-02-06T09:49:23.146Z,59.42
2019-02-06T09:50:29.392Z,59.22
2019-02-06T09:51:33.034Z,60.04
2019-02-06T09:52:36.671Z,60.04
2019-02-06T09:53:40.589Z,59.84
2019-02-06T09:54:44.279Z,59.87
2019-02-06T09:55:47.911Z,60.37
2019-02-06T09:56:51.582Z,59.90
2019-02-06T09:57:55.209Z,59.74
2019-02-06T09:58:58.836Z,58.95
2019-02-06T10:00:02.631Z,59.61
2019-02-06T10:01:06.338Z,59.55
2019-02-06T10:02:10.058Z,59.78
2019-02-06T10:03:13.688Z,60.04
2019-02-06T10:04:17.343Z,60.67
2019-02-06T10:05:21.135Z,60.86
2019-02-06T10:06:24.858Z,60.71
2019-02-06T10:07:28.512Z,60.81
2019-02-06T10:08:32.522Z,60.71
2019-02-06T10:09:36.153Z,60.87
2019-02-06T10:10:39.765Z,60.91
2019-02-06T10:11:43.459Z,60.42
2019-02-06T10:12:47.182Z,60.89
2019-02-06T10:13:50.801Z,61.22
2019-02-06T10:14:54.637Z,62.04
2019-02-06T10:15:58.275Z,62.59
2019-02-06T10:17:01.896Z,62.15
2019-02-06T10:18:05.966Z,61.87
2019-02-06T10:19:09.678Z,61.27
2019-02-06T10:20:16.503Z,61.48
2019-02-06T10:21:20.184Z,61.14
2019-02-06T10:22:24.167Z,61.08
2019-02-06T10:23:28.194Z,60.61
2019-02-06T10:24:31.766Z,61.37
2019-02-06T10:25:35.912Z,60.90
2019-02-06T10:26:39.526Z,61.15
2019-02-06T10:27:43.254Z,60.20
2019-02-06T10:28:47.046Z,61.09
2019-02-06T10:29:50.677Z,60.40
2019-02-06T10:30:54.370Z,61.40
2019-02-06T10:31:58.018Z,61.40
2019-02-06T10:33:01.650Z,62.09
2019-02-06T10:34:05.424Z,62.32
2019-02-06T10:35:09.562Z,61.30
2019-02-06T10:36:13.768Z,62.21
2019-02-06T10:37:17.705Z,63.58
2019-02-06T10:38:21.337Z,62.86
2019-02-06T10:39:34.295Z,63.63
2019-02-06T10:40:30.483Z,62.68
2019-02-06T10:41:34.116Z,62.65
2019-02-06T10:42:37.811Z,61.91
2019-02-06T10:43:41.405Z,63.16
2019-02-06T10:44:45.161Z,63.31
2019-02-06T10:45:48.848Z,63.17
2019-02-06T10:46:52.508Z,63.60
2019-02-06T10:47:56.470Z,62.73
2019-02-06T10:49:00.237Z,62.73
2019-02-06T10:50:05.363Z,63.09
2019-02-06T10:51:09.579Z,63.41
2019-02-06T10:52:13.501Z,62.68
2019-02-06T10:53:17.585Z,61.77
2019-02-06T10:54:21.253Z,61.47
2019-02-06T10:55:24.955Z,62.52
2019-02-06T10:56:29.062Z,63.81
2019-02-06T10:57:32.715Z,64.27
2019-02-06T10:58:36.331Z,63.37
2019-02-06T10:59:39.968Z,64.49
2019-02-06T11:00:49.463Z,64.88
2019-02-06T11:01:53.222Z,64.95
2019-02-06T11:02:56.939Z,65.17
2019-02-06T11:04:00.751Z,64.96
2019-02-06T11:05:05.975Z,65.82
2019-02-06T11:06:09.928Z,63.71
2019-02-06T11:07:14.048Z,64.65
2019-02-06T11:08:18.277Z,64.87
2019-02-06T11:09:21.961Z,66.32
2019-02-06T11:10:27.491Z,65.65
2019-02-06T11:11:31.432Z,65.48
2019-02-06T11:12:35.431Z,65.19
2019-02-06T11:13:39.064Z,65.51
2019-02-06T11:14:42.706Z,64.19
2019-02-06T11:15:46.335Z,64.08
2019-02-06T11:16:50.409Z,64.26
2019-02-06T11:17:54.080Z,65.04
2019-02-06T11:18:57.717Z,65.75
2019-02-06T11:20:01.354Z,65.35
2019-02-06T11:21:05.859Z,65.05
2019-02-06T11:22:09.899Z,65.44
2019-02-06T11:23:13.634Z,66.40
2019-02-06T11:24:17.270Z,66.98
2019-02-06T11:25:20.924Z,67.83
2019-02-06T11:26:24.636Z,67.46
2019-02-06T11:27:28.292Z,67.87
2019-02-06T11:28:32.035Z,68.31
2019-02-06T11:29:35.671Z,68.25
2019-02-06T11:30:40.307Z,68.60
2019-02-06T11:31:44.364Z,68.46
2019-02-06T11:32:48.039Z,67.02
2019-02-06T11:33:52.055Z,68.49
2019-02-06T11:34:55.775Z,68.62
2019-02-06T11:35:59.597Z,68.53
2019-02-06T11:37:04.720Z,67.99
2019-02-06T11:38:08.880Z,67.95
2019-02-06T11:39:16.556Z,68.55
2019-02-06T11:40:24.627Z,69.72
2019-02-06T11:41:28.265Z,69.82
2019-02-06T11:42:31.996Z,70.74
2019-02-06T11:43:35.669Z,70.15
2019-02-06T11:44:39.303Z,70.63
2019-02-06T11:45:43.035Z,70.16
2019-02-06T11:46:46.684Z,70.29
2019-02-06T11:47:50.375Z,71.73
2019-02-06T11:48:54.086Z,72.28
2019-02-06T11:49:59.203Z,72.63
2019-02-06T11:51:02.839Z,73.12
2019-02-06T11:52:06.976Z,73.84
2019-02-06T11:53:12.610Z,73.83
2019-02-06T11:54:16.280Z,72.64
2019-02-06T11:55:22.215Z,74.65
2019-02-06T11:56:25.854Z,73.83
2019-02-06T11:57:29.539Z,73.53
2019-02-06T11:58:33.487Z,73.29
2019-02-06T11:59:37.489Z,73.44
2019-02-06T12:00:55.588Z,73.85
2019-02-06T12:01:59.301Z,73.88
2019-02-06T12:03:04.487Z,73.59
2019-02-06T12:04:08.136Z,73.73
2019-02-06T12:05:12.080Z,75.05
2019-02-06T12:06:15.721Z,76.11
2019-02-06T12:07:19.765Z,75.73
2019-02-06T12:08:23.478Z,76.00
2019-02-06T12:09:27.188Z,75.52
2019-02-06T12:10:31.232Z,75.89
2019-02-06T12:11:34.863Z,76.21
2019-02-06T12:12:38.500Z,75.77
2019-02-06T12:13:42.137Z,75.94
2019-02-06T12:14:45.777Z,74.97
2019-02-06T12:15:49.449Z,75.44
2019-02-06T12:16:53.078Z,75.86
2019-02-06T12:17:56.717Z,75.93
2019-02-06T12:19:00.429Z,75.92
2019-02-06T12:20:06.209Z,75.03
2019-02-06T12:21:09.885Z,74.58
2019-02-06T12:22:13.526Z,74.63
2019-02-06T12:23:17.174Z,75.10
2019-02-06T12:24:21.284Z,75.46
2019-02-06T12:25:24.930Z,75.14
2019-02-06T12:26:28.679Z,75.01
2019-02-06T12:27:32.388Z,75.36
2019-02-06T12:28:36.088Z,76.05
2019-02-06T12:29:39.719Z,76.46
2019-02-06T12:30:43.363Z,76.30
2019-02-06T12:31:47.343Z,76.43
2019-02-06T12:32:52.216Z,77.46
2019-02-06T12:33:56.313Z,77.39
2019-02-06T12:34:59.950Z,77.37
2019-02-06T12:36:04.539Z,77.19
2019-02-06T12:37:08.305Z,76.45
2019-02-06T12:38:12.325Z,76.43
2019-02-06T12:39:16.080Z,76.37
2019-02-06T12:40:21.846Z,76.33
2019-02-06T12:41:25.647Z,76.70
2019-02-06T12:42:29.777Z,76.78
2019-02-06T12:43:33.462Z,77.03
2019-02-06T12:44:37.118Z,76.70
2019-02-06T12:45:40.824Z,76.86
2019-02-06T12:46:44.504Z,77.03
2019-02-06T12:47:48.175Z,76.73
2019-02-06T12:48:51.922Z,76.97
2019-02-06T12:49:55.959Z,77.58
2019-02-06T12:50:59.576Z,77.91
2019-02-06T12:52:04.126Z,77.97
2019-02-06T12:53:07.933Z,77.60
2019-02-06T12:54:11.578Z,77.15
2019-02-06T12:55:20.741Z,76.95
2019-02-06T12:56:24.401Z,76.87
2019-02-06T12:57:41.306Z,76.80
2019-02-06T12:58:45.053Z,77.12
2019-02-06T12:59:48.695Z,77.35
2019-02-06T13:00:52.330Z,76.76
2019-02-06T13:01:56.030Z,76.82
2019-02-06T13:03:00.439Z,76.11
2019-02-06T13:04:04.222Z,75.49
2019-02-06T13:05:10.188Z,74.19
2019-02-06T13:06:13.749Z,74.06
2019-02-06T13:07:17.665Z,75.66
2019-02-06T13:08:21.776Z,75.78
2019-02-06T13:09:25.448Z,74.89
2019-02-06T13:10:34.162Z,73.68
2019-02-06T13:11:34.453Z,73.35
2019-02-06T13:12:40.180Z,73.58
2019-02-06T13:13:45.335Z,74.03
2019-02-06T13:14:49.162Z,75.16
2019-02-06T13:15:52.797Z,76.02
2019-02-06T13:16:56.430Z,76.56
2019-02-06T13:18:00.066Z,77.11
2019-02-06T13:19:03.801Z,76.98
2019-02-06T13:20:10.385Z,77.19
2019-02-06T13:21:14.020Z,76.97
2019-02-06T13:22:17.659Z,77.14
2019-02-06T13:23:21.683Z,77.12
2019-02-06T13:24:25.325Z,77.48
2019-02-06T13:25:29.001Z,77.26
2019-02-06T13:26:32.636Z,77.36
2019-02-06T13:27:36.274Z,77.93
2019-02-06T13:28:39.915Z,78.04
2019-02-06T13:29:43.551Z,77.98
2019-02-06T13:30:47.215Z,77.51
2019-02-06T13:31:50.855Z,77.76
2019-02-06T13:32:54.492Z,77.22
2019-02-06T13:33:58.131Z,76.29
2019-02-06T13:35:01.775Z,76.47
2019-02-06T13:36:08.724Z,76.92
2019-02-06T13:37:12.551Z,76.91
2019-02-06T13:38:16.739Z,76.46
2019-02-06T13:39:20.373Z,76.43
2019-02-06T13:40:28.399Z,76.80
2019-02-06T13:41:32.059Z,76.93
2019-02-06T13:42:35.690Z,76.99
2019-02-06T13:43:39.371Z,77.83
2019-02-06T13:44:43.000Z,77.89
2019-02-06T13:45:48.839Z,77.83
2019-02-06T13:46:53.611Z,77.51
2019-02-06T13:47:57.520Z,77.78
2019-02-06T13:49:01.192Z,77.70
2019-02-06T13:50:07.771Z,77.29
2019-02-06T13:51:17.387Z,77.18
2019-02-06T13:52:16.912Z,77.44
2019-02-06T13:53:20.557Z,77.36
2019-02-06T13:54:24.616Z,77.25
2019-02-06T13:55:28.453Z,76.79
2019-02-06T13:56:36.314Z,76.47
2019-02-06T13:57:39.943Z,76.84
2019-02-06T13:58:45.016Z,77.52
2019-02-06T13:59:48.802Z,76.90
2019-02-06T14:00:52.983Z,76.39
2019-02-06T14:01:56.743Z,76.32
2019-02-06T14:03:01.068Z,76.48
2019-02-06T14:04:04.705Z,76.78
2019-02-06T14:05:09.021Z,77.21
2019-02-06T14:06:16.641Z,77.40
2019-02-06T14:07:20.359Z,77.27
2019-02-06T14:08:29.895Z,77.40
2019-02-06T14:09:33.535Z,77.46
2019-02-06T14:10:37.172Z,78.08
2019-02-06T14:11:42.637Z,78.16
2019-02-06T14:12:48.095Z,77.76
2019-02-06T14:13:54.596Z,77.53
2019-02-06T14:14:58.243Z,77.40
2019-02-06T14:16:02.826Z,77.37
2019-02-06T14:17:06.469Z,77.53
2019-02-06T14:18:11.338Z,77.64
2019-02-06T14:19:14.969Z,77.78
2019-02-06T14:20:20.942Z,77.98
2019-02-06T14:21:24.613Z,78.10
2019-02-06T14:22:46.867Z,78.38
2019-02-06T14:23:56.318Z,78.58
2019-02-06T14:25:00.331Z,78.55
2019-02-06T14:26:24.889Z,78.51
2019-02-06T14:27:34.422Z,78.46
2019-02-06T14:28:56.732Z,78.51
2019-02-06T14:30:18.751Z,77.99
2019-02-06T14:31:52.411Z,77.96
2019-02-06T14:33:13.937Z,78.69
2019-02-06T14:34:23.056Z,78.21
2019-02-06T14:35:35.563Z,78.31
2019-02-06T14:36:44.925Z,78.25
2019-02-06T14:37:54.532Z,78.19
2019-02-06T14:39:04.979Z,78.09
2019-02-06T14:40:20.489Z,78.36
2019-02-06T14:41:36.185Z,78.57
2019-02-06T14:42:52.302Z,79.12
2019-02-06T14:44:18.423Z,78.59
2019-02-06T14:45:41.549Z,78.02
2019-02-06T14:47:06.279Z,77.79
2019-02-06T14:48:29.792Z,78.76
2019-02-06T14:49:41.718Z,79.40
2019-02-06T14:51:00.159Z,78.79
2019-02-06T14:52:15.812Z,78.16
2019-02-06T14:53:24.897Z,78.70
2019-02-06T14:54:43.303Z,78.90
2019-02-06T14:55:52.659Z,77.93